Time;durP1;ratioP1;P1;durP2;ratioP2;P2;SDS_P1;SDS_P2;PMS_P1;PMS_P2;Temp;Humidity;BMP_temperature;BMP_pressure;BME280_temperature;BME280_humidity;BME280_pressure;Samples;Min_cycle;Max_cycle;Signal;HPM_P1;HPM_P2
2023/09/27 00:01:05;;;;;;;5.38;2.65;;;;;;;;;;5073786;28;20017;-92
2023/09/27 00:03:30;;;;;;;5.55;3.00;;;;;;;;;;5073626;28;20451;-92
2023/09/27 00:05:56;;;;;;;5.05;2.53;;;;;;;;;;5070446;28;20330;-92
2023/09/27 00:08:22;;;;;;;6.22;2.80;;;;;;;;;;5064513;28;20119;-92
2023/09/27 00:10:47;;;;;;;5.45;3.00;;;;;;;;;;5073808;28;20088;-92
2023/09/27 00:13:13;;;;;;;8.25;3.22;;;;;;;;;;5077140;28;20028;-92
2023/09/27 00:15:38;;;;;;;4.97;2.75;;;;;;;;;;5063678;28;20409;-92
2023/09/27 00:18:04;;;;;;;4.10;2.63;;;;;;;;;;5069938;28;20028;-91
2023/09/27 00:20:30;;;;;;;9.85;3.22;;;;;;;;;;5075273;28;20028;-93
2023/09/27 00:22:55;;;;;;;9.05;2.65;;;;;;;;;;5073211;28;20024;-92
2023/09/27 00:25:21;;;;;;;5.32;2.97;;;;;;;;;;5066342;28;20017;-92
2023/09/27 00:27:46;;;;;;;5.05;2.97;;;;;;;;;;5068985;28;20130;-92
2023/09/27 00:30:15;;;;;;;10.15;3.10;;;;;;;;;;5065862;28;20456;-92
2023/09/27 00:32:46;;;;;;;5.82;2.78;;;;;;;;;;5053640;28;20028;-92
2023/09/27 00:35:18;;;;;;;5.60;3.15;;;;;;;;;;5066078;28;20029;-92
2023/09/27 00:37:44;;;;;;;9.10;3.80;;;;;;;;;;5066290;28;20119;-92
2023/09/27 00:40:12;;;;;;;6.43;3.70;;;;;;;;;;5058440;28;20059;-92
2023/09/27 00:42:38;;;;;;;5.85;3.00;;;;;;;;;;5072952;28;20452;-92
2023/09/27 00:45:03;;;;;;;5.95;2.95;;;;;;;;;;5073549;28;20031;-92
2023/09/27 00:47:30;;;;;;;6.55;3.08;;;;;;;;;;5072104;28;20027;-92
2023/09/27 00:49:56;;;;;;;11.40;2.88;;;;;;;;;;5060072;28;20025;-91
2023/09/27 00:52:21;;;;;;;8.65;3.65;;;;;;;;;;5066539;28;20028;-92
2023/09/27 00:54:47;;;;;;;9.10;3.30;;;;;;;;;;5062597;28;20031;-92
2023/09/27 00:57:13;;;;;;;6.53;3.17;;;;;;;;;;5068216;28;20050;-92
2023/09/27 00:59:38;;;;;;;8.02;3.10;;;;;;;;;;5060526;28;20052;-92
2023/09/27 01:02:06;;;;;;;6.97;3.38;;;;;;;;;;5058027;28;20108;-92
2023/09/27 01:04:32;;;;;;;4.95;2.83;;;;;;;;;;5058805;28;20357;-92
2023/09/27 01:06:58;;;;;;;6.90;2.80;;;;;;;;;;5072161;28;20486;-92
2023/09/27 01:09:23;;;;;;;6.10;3.00;;;;;;;;;;5069287;28;20048;-92
2023/09/27 01:11:52;;;;;;;4.50;2.95;;;;;;;;;;5063160;28;20035;-92
2023/09/27 01:14:17;;;;;;;6.18;2.53;;;;;;;;;;5058466;28;20676;-92
2023/09/27 01:16:43;;;;;;;6.47;3.05;;;;;;;;;;5068360;28;20183;-92
2023/09/27 01:19:09;;;;;;;6.07;2.90;;;;;;;;;;5076116;28;20036;-92
2023/09/27 01:21:34;;;;;;;8.15;3.53;;;;;;;;;;5074228;28;20028;-92
2023/09/27 01:23:59;;;;;;;6.78;3.47;;;;;;;;;;5075818;28;20025;-91
2023/09/27 01:26:25;;;;;;;11.15;3.97;;;;;;;;;;5063951;28;20048;-92
2023/09/27 01:28:51;;;;;;;7.63;3.85;;;;;;;;;;5067532;28;20086;-91
2023/09/27 01:31:23;;;;;;;11.25;4.15;;;;;;;;;;5074655;28;20021;-92
2023/09/27 01:33:49;;;;;;;6.75;3.88;;;;;;;;;;5074717;28;20082;-92
2023/09/27 01:36:15;;;;;;;11.77;4.10;;;;;;;;;;5074739;28;20464;-91
2023/09/27 01:38:40;;;;;;;7.03;4.25;;;;;;;;;;5075743;28;20016;-91
2023/09/27 01:41:05;;;;;;;12.13;4.53;;;;;;;;;;5073077;28;20028;-91
2023/09/27 01:43:31;;;;;;;10.13;3.95;;;;;;;;;;5073001;28;20048;-91
2023/09/27 01:45:56;;;;;;;9.80;3.67;;;;;;;;;;5072076;28;20017;-91
2023/09/27 01:48:21;;;;;;;6.22;3.65;;;;;;;;;;5066201;28;20029;-92
2023/09/27 01:50:47;;;;;;;9.88;4.00;;;;;;;;;;5071774;28;20017;-91
2023/09/27 01:53:12;;;;;;;7.97;3.45;;;;;;;;;;5060469;28;20028;-91
2023/09/27 01:55:37;;;;;;;5.80;3.50;;;;;;;;;;5069279;28;20025;-92
2023/09/27 01:58:03;;;;;;;7.50;3.85;;;;;;;;;;5062302;28;20024;-92
2023/09/27 02:00:29;;;;;;;7.82;4.35;;;;;;;;;;5067016;28;20067;-92
2023/09/27 02:02:55;;;;;;;6.57;3.65;;;;;;;;;;5068757;28;20457;-92
2023/09/27 02:05:21;;;;;;;7.53;3.88;;;;;;;;;;5070075;28;20025;-92
2023/09/27 02:07:46;;;;;;;10.05;3.40;;;;;;;;;;5071719;28;20025;-91
2023/09/27 02:10:14;;;;;;;7.20;3.75;;;;;;;;;;5061915;28;20028;-92
2023/09/27 02:12:39;;;;;;;8.10;4.00;;;;;;;;;;5067974;28;20185;-92
2023/09/27 02:15:05;;;;;;;5.53;3.45;;;;;;;;;;5075096;28;20043;-92
2023/09/27 02:17:31;;;;;;;6.88;3.92;;;;;;;;;;5072002;28;20016;-93
2023/09/27 02:19:56;;;;;;;6.38;3.75;;;;;;;;;;5075379;28;20027;-92
2023/09/27 02:22:22;;;;;;;7.03;3.60;;;;;;;;;;5075509;28;20039;-92
2023/09/27 02:24:48;;;;;;;6.10;3.42;;;;;;;;;;5075382;28;20027;-91
2023/09/27 02:27:14;;;;;;;6.25;3.50;;;;;;;;;;5067389;28;20364;-91
2023/09/27 02:29:42;;;;;;;9.15;4.00;;;;;;;;;;5079449;28;20138;-92
2023/09/27 02:32:08;;;;;;;9.23;3.90;;;;;;;;;;5065090;28;20036;-92
2023/09/27 02:34:37;;;;;;;8.35;4.05;;;;;;;;;;5079449;28;20028;-92
2023/09/27 02:37:03;;;;;;;8.68;4.25;;;;;;;;;;5071395;28;20017;-92
2023/09/27 02:39:31;;;;;;;5.30;3.22;;;;;;;;;;5082037;28;20025;-91
2023/09/27 02:41:59;;;;;;;5.43;3.30;;;;;;;;;;5080101;28;20024;-92
2023/09/27 02:44:25;;;;;;;7.05;3.60;;;;;;;;;;5060987;28;20078;-93
2023/09/27 02:46:52;;;;;;;5.45;3.25;;;;;;;;;;5068064;28;20028;-92
2023/09/27 02:49:18;;;;;;;6.32;3.83;;;;;;;;;;5078195;28;20021;-92
2023/09/27 02:51:43;;;;;;;7.78;4.18;;;;;;;;;;5063784;28;20347;-92
2023/09/27 02:54:09;;;;;;;9.88;4.88;;;;;;;;;;5072447;28;20024;-93
2023/09/27 02:56:34;;;;;;;9.52;4.50;;;;;;;;;;5074681;28;20477;-92
2023/09/27 02:59:02;;;;;;;6.95;4.05;;;;;;;;;;5075272;28;20024;-92
2023/09/27 03:01:28;;;;;;;6.07;3.67;;;;;;;;;;5067552;28;20457;-92
2023/09/27 03:03:55;;;;;;;7.53;4.15;;;;;;;;;;5068821;28;20336;-91
2023/09/27 03:06:21;;;;;;;6.07;3.67;;;;;;;;;;5069437;28;20077;-92
2023/09/27 03:08:48;;;;;;;6.28;3.63;;;;;;;;;;5066706;28;20031;-92
2023/09/27 03:11:13;;;;;;;10.60;3.28;;;;;;;;;;5074070;28;20016;-92
2023/09/27 03:13:40;;;;;;;8.77;3.30;;;;;;;;;;5063817;28;20039;-91
2023/09/27 03:16:05;;;;;;;8.35;4.05;;;;;;;;;;5053548;28;20020;-91
2023/09/27 03:18:36;;;;;;;8.30;4.75;;;;;;;;;;5073292;28;20025;-92
2023/09/27 03:21:01;;;;;;;6.80;4.38;;;;;;;;;;5060026;28;20021;-92
2023/09/27 03:23:27;;;;;;;7.03;3.67;;;;;;;;;;5073459;28;20104;-92
2023/09/27 03:26:00;;;;;;;8.48;4.63;;;;;;;;;;5074197;28;20107;-92
2023/09/27 03:28:25;;;;;;;8.48;4.53;;;;;;;;;;5059182;28;20479;-92
2023/09/27 03:30:50;;;;;;;5.72;4.20;;;;;;;;;;5063533;28;20092;-92
2023/09/27 03:33:16;;;;;;;7.60;3.90;;;;;;;;;;5057963;28;20482;-92
2023/09/27 03:35:41;;;;;;;7.50;3.88;;;;;;;;;;5065849;28;20024;-92
2023/09/27 03:38:07;;;;;;;9.60;3.67;;;;;;;;;;5069761;28;20021;-92
2023/09/27 03:40:32;;;;;;;10.57;4.10;;;;;;;;;;5078752;28;20024;-94
2023/09/27 03:42:58;;;;;;;6.07;3.60;;;;;;;;;;5065405;28;20104;-92
2023/09/27 03:45:23;;;;;;;6.05;3.72;;;;;;;;;;5074610;28;20016;-92
2023/09/27 03:47:51;;;;;;;9.55;5.03;;;;;;;;;;5077118;28;20367;-92
2023/09/27 03:50:20;;;;;;;16.85;4.80;;;;;;;;;;5064743;28;20391;-91
2023/09/27 03:52:48;;;;;;;9.98;3.67;;;;;;;;;;5080927;28;20028;-92
2023/09/27 03:55:18;;;;;;;9.23;4.40;;;;;;;;;;5063585;28;20112;-92
2023/09/27 03:57:43;;;;;;;9.43;4.15;;;;;;;;;;5065870;28;20028;-92
2023/09/27 04:00:13;;;;;;;7.57;4.25;;;;;;;;;;5074581;28;20024;-91
2023/09/27 04:02:39;;;;;;;15.35;3.90;;;;;;;;;;5066905;28;20020;-90
2023/09/27 04:05:05;;;;;;;8.35;3.42;;;;;;;;;;5074173;28;20021;-92
2023/09/27 04:07:30;;;;;;;7.05;3.78;;;;;;;;;;5072812;28;20115;-92
2023/09/27 04:09:55;;;;;;;8.27;3.88;;;;;;;;;;5073978;28;20034;-92
2023/09/27 04:12:21;;;;;;;7.25;4.25;;;;;;;;;;5073400;28;20021;-92
2023/09/27 04:14:46;;;;;;;7.90;4.57;;;;;;;;;;5069295;28;20059;-91
2023/09/27 04:17:11;;;;;;;9.73;4.00;;;;;;;;;;5063702;28;20024;-92
2023/09/27 04:19:37;;;;;;;6.35;3.90;;;;;;;;;;5059843;28;20032;-92
2023/09/27 04:22:02;;;;;;;5.45;3.70;;;;;;;;;;5073305;28;20024;-92
2023/09/27 04:24:27;;;;;;;14.02;4.47;;;;;;;;;;5058439;28;20025;-92
2023/09/27 04:26:53;;;;;;;8.50;3.83;;;;;;;;;;5054585;28;20048;-92
2023/09/27 04:29:19;;;;;;;7.10;4.30;;;;;;;;;;5072397;28;20473;-93
2023/09/27 04:31:44;;;;;;;6.18;4.38;;;;;;;;;;5072350;28;20086;-92
2023/09/27 04:34:10;;;;;;;7.47;3.85;;;;;;;;;;5062770;28;20027;-92
2023/09/27 04:36:35;;;;;;;8.10;3.88;;;;;;;;;;5053676;28;20067;-92
2023/09/27 04:39:00;;;;;;;8.77;4.30;;;;;;;;;;5072773;28;20019;-92
2023/09/27 04:41:26;;;;;;;5.55;3.92;;;;;;;;;;5072567;28;20067;-92
2023/09/27 04:43:52;;;;;;;9.20;4.28;;;;;;;;;;5075640;28;20017;-91
2023/09/27 04:46:24;;;;;;;7.13;4.38;;;;;;;;;;5061333;28;20543;-92
2023/09/27 04:48:50;;;;;;;6.15;3.38;;;;;;;;;;5068562;28;20027;-92
2023/09/27 04:51:16;;;;;;;5.53;3.35;;;;;;;;;;5074530;28;20486;-92
2023/09/27 04:53:41;;;;;;;12.55;3.47;;;;;;;;;;5076660;28;20033;-92
2023/09/27 04:56:11;;;;;;;8.75;4.00;;;;;;;;;;5076469;28;20016;-92
2023/09/27 04:58:38;;;;;;;8.23;3.88;;;;;;;;;;5064442;28;20024;-92
2023/09/27 05:01:04;;;;;;;7.10;3.72;;;;;;;;;;5061739;28;20032;-92
2023/09/27 05:03:33;;;;;;;5.40;3.17;;;;;;;;;;5075181;28;20021;-92
2023/09/27 05:05:58;;;;;;;6.70;4.00;;;;;;;;;;5069454;28;20027;-92
2023/09/27 05:08:25;;;;;;;9.88;3.83;;;;;;;;;;5066551;28;20020;-92
2023/09/27 05:10:51;;;;;;;10.15;3.88;;;;;;;;;;5072270;28;20333;-92
2023/09/27 05:13:21;;;;;;;10.55;3.40;;;;;;;;;;5076040;28;20093;-92
2023/09/27 05:15:49;;;;;;;9.23;3.78;;;;;;;;;;5072652;28;20021;-92
2023/09/27 05:18:14;;;;;;;6.63;3.50;;;;;;;;;;5072785;28;20029;-92
2023/09/27 05:20:39;;;;;;;8.02;3.60;;;;;;;;;;5073014;28;20070;-92
2023/09/27 05:23:05;;;;;;;7.40;3.70;;;;;;;;;;5058511;28;20033;-92
2023/09/27 05:25:30;;;;;;;6.13;3.67;;;;;;;;;;5063273;28;20416;-92
2023/09/27 05:27:57;;;;;;;9.48;3.65;;;;;;;;;;5065609;28;20039;-92
2023/09/27 05:30:22;;;;;;;9.57;3.83;;;;;;;;;;5052623;28;20104;-92
2023/09/27 05:32:47;;;;;;;9.55;4.43;;;;;;;;;;5065362;28;20051;-92
2023/09/27 05:35:13;;;;;;;12.40;3.65;;;;;;;;;;5071851;28;20032;-92
2023/09/27 05:37:40;;;;;;;5.93;3.45;;;;;;;;;;5075141;28;20139;-92
2023/09/27 05:40:07;;;;;;;8.38;3.92;;;;;;;;;;5075534;28;20028;-92
2023/09/27 05:42:33;;;;;;;6.80;3.80;;;;;;;;;;5067002;28;20028;-92
2023/09/27 05:44:58;;;;;;;12.52;3.47;;;;;;;;;;5069657;28;20017;-92
2023/09/27 05:47:24;;;;;;;5.68;3.83;;;;;;;;;;5061098;28;20117;-92
2023/09/27 05:49:53;;;;;;;6.88;3.80;;;;;;;;;;5062675;28;20395;-92
2023/09/27 05:52:19;;;;;;;7.38;4.03;;;;;;;;;;5074499;28;20032;-92
2023/09/27 05:54:46;;;;;;;10.15;3.85;;;;;;;;;;5077095;28;20064;-92
2023/09/27 05:57:11;;;;;;;8.77;3.72;;;;;;;;;;5075415;28;20127;-92
2023/09/27 05:59:40;;;;;;;8.00;4.35;;;;;;;;;;5075853;28;20059;-92
2023/09/27 06:02:06;;;;;;;6.55;3.90;;;;;;;;;;5075938;28;20032;-92
2023/09/27 06:04:35;;;;;;;9.43;3.70;;;;;;;;;;5068943;28;20025;-92
2023/09/27 06:07:00;;;;;;;10.98;4.25;;;;;;;;;;5074677;28;20052;-92
2023/09/27 06:09:26;;;;;;;6.75;3.95;;;;;;;;;;5080709;28;20391;-92
2023/09/27 06:11:52;;;;;;;9.68;4.18;;;;;;;;;;5079461;28;20048;-92
2023/09/27 06:14:17;;;;;;;8.80;4.75;;;;;;;;;;5081932;28;20024;-92
2023/09/27 06:16:45;;;;;;;15.23;4.75;;;;;;;;;;5074318;28;20021;-93
2023/09/27 06:19:11;;;;;;;9.95;4.75;;;;;;;;;;5077499;28;20033;-93
2023/09/27 06:21:36;;;;;;;9.05;4.78;;;;;;;;;;5067895;28;20524;-92
2023/09/27 06:24:02;;;;;;;9.77;4.88;;;;;;;;;;5070523;28;20056;-92
2023/09/27 06:26:29;;;;;;;6.97;4.40;;;;;;;;;;5075932;28;20025;-92
2023/09/27 06:28:55;;;;;;;7.65;4.47;;;;;;;;;;5075258;28;20435;-93
2023/09/27 06:31:21;;;;;;;8.77;4.65;;;;;;;;;;5075254;28;20024;-92
2023/09/27 06:33:47;;;;;;;11.32;4.63;;;;;;;;;;5075038;28;20021;-93
2023/09/27 06:36:15;;;;;;;14.32;5.88;;;;;;;;;;5074868;28;20025;-92
2023/09/27 06:38:40;;;;;;;7.20;4.35;;;;;;;;;;5069377;28;20021;-92
2023/09/27 06:41:07;;;;;;;11.88;5.50;;;;;;;;;;5066019;28;20028;-93
2023/09/27 06:43:33;;;;;;;9.57;5.18;;;;;;;;;;5074507;28;20088;-92
2023/09/27 06:46:01;;;;;;;9.18;4.88;;;;;;;;;;5064386;28;20063;-92
2023/09/27 06:48:27;;;;;;;13.35;5.43;;;;;;;;;;5068123;28;20403;-93
2023/09/27 06:50:53;;;;;;;11.63;5.70;;;;;;;;;;5070514;28;20423;-92
2023/09/27 06:53:18;;;;;;;8.38;5.07;;;;;;;;;;5075754;28;20017;-93
2023/09/27 06:55:46;;;;;;;9.98;5.30;;;;;;;;;;5071866;28;20107;-95
2023/09/27 06:58:13;;;;;;;12.45;5.63;;;;;;;;;;5073446;28;20054;-95
2023/09/27 07:00:42;;;;;;;14.95;5.65;;;;;;;;;;5070998;28;20048;-96
2023/09/27 07:03:07;;;;;;;6.95;4.97;;;;;;;;;;5064958;28;20021;-94
2023/09/27 07:05:35;;;;;;;10.45;5.47;;;;;;;;;;5076278;28;20058;-95
2023/09/27 07:08:01;;;;;;;14.23;5.25;;;;;;;;;;5074676;28;20078;-95
2023/09/27 07:10:28;;;;;;;11.07;5.35;;;;;;;;;;5074723;28;20028;-94
2023/09/27 07:12:54;;;;;;;15.82;5.90;;;;;;;;;;5075816;28;20028;-95
2023/09/27 07:15:20;;;;;;;8.77;5.35;;;;;;;;;;5082956;28;20051;-95
2023/09/27 07:17:52;;;;;;;10.05;5.25;;;;;;;;;;5080495;28;20025;-95
2023/09/27 07:23:14;;;;;;;10.03;5.87;;;;;;;;;;5077337;28;20064;-95
2023/09/27 07:25:40;;;;;;;9.15;5.97;;;;;;;;;;5080209;28;20020;-95
2023/09/27 07:28:05;;;;;;;9.95;5.78;;;;;;;;;;5077671;28;20472;-96
2023/09/27 07:30:37;;;;;;;9.90;6.10;;;;;;;;;;5074573;28;20102;-96
2023/09/27 07:33:06;;;;;;;10.57;6.32;;;;;;;;;;5068114;28;20036;-96
2023/09/27 07:35:35;;;;;;;10.95;6.75;;;;;;;;;;5073727;28;20185;-96
2023/09/27 07:38:00;;;;;;;11.77;6.78;;;;;;;;;;5074714;28;20475;-95
2023/09/27 07:40:26;;;;;;;20.45;7.10;;;;;;;;;;5074366;28;20440;-95
2023/09/27 07:42:51;;;;;;;12.80;7.03;;;;;;;;;;5073674;28;20008;-95
2023/09/27 07:45:26;;;;;;;11.95;6.95;;;;;;;;;;5073636;28;20036;-96
2023/09/27 07:47:52;;;;;;;13.45;7.35;;;;;;;;;;5069537;28;20024;-96
2023/09/27 07:50:21;;;;;;;11.10;7.20;;;;;;;;;;5066480;28;20025;-95
2023/09/27 07:52:47;;;;;;;10.80;6.38;;;;;;;;;;5069962;28;20380;-95
2023/09/27 07:55:14;;;;;;;18.17;7.35;;;;;;;;;;5071904;28;20067;-96
2023/09/27 07:57:42;;;;;;;11.70;7.07;;;;;;;;;;5073314;28;20033;-95
2023/09/27 08:00:10;;;;;;;12.63;6.60;;;;;;;;;;5069850;28;20157;-95
2023/09/27 08:02:36;;;;;;;13.98;7.25;;;;;;;;;;5071434;28;20103;-95
2023/09/27 08:05:09;;;;;;;14.70;7.70;;;;;;;;;;5067008;28;20406;-95
2023/09/27 08:07:38;;;;;;;12.98;7.30;;;;;;;;;;5095966;28;20023;-94
2023/09/27 08:10:04;;;;;;;14.35;7.57;;;;;;;;;;5073271;28;20032;-94
2023/09/27 08:12:31;;;;;;;14.45;7.40;;;;;;;;;;5073320;28;20024;-92
2023/09/27 08:14:58;;;;;;;13.77;7.38;;;;;;;;;;5073084;28;20017;-94
2023/09/27 08:17:25;;;;;;;17.77;8.45;;;;;;;;;;5076211;28;20027;-94
2023/09/27 08:19:51;;;;;;;14.30;7.35;;;;;;;;;;5064268;28;20460;-94
2023/09/27 08:22:16;;;;;;;17.95;7.45;;;;;;;;;;5073461;28;20467;-93
2023/09/27 08:24:42;;;;;;;13.55;6.60;;;;;;;;;;5060809;28;20032;-94
2023/09/27 08:27:11;;;;;;;11.40;6.97;;;;;;;;;;5075758;28;20048;-92
2023/09/27 08:29:36;;;;;;;18.88;7.75;;;;;;;;;;5074468;28;20024;-94
2023/09/27 08:32:02;;;;;;;13.32;7.65;;;;;;;;;;5071675;28;20044;-93
2023/09/27 08:34:28;;;;;;;13.60;7.00;;;;;;;;;;5077076;28;20076;-94
2023/09/27 08:36:54;;;;;;;9.90;5.35;;;;;;;;;;5079684;28;20017;-93
2023/09/27 08:39:22;;;;;;;9.93;5.82;;;;;;;;;;5074994;28;20373;-95
2023/09/27 08:41:47;;;;;;;11.27;5.72;;;;;;;;;;5067917;28;20368;-93
2023/09/27 08:44:13;;;;;;;10.25;4.82;;;;;;;;;;5073807;28;20020;-94
2023/09/27 08:46:39;;;;;;;13.23;5.75;;;;;;;;;;5072306;28;20020;-94
2023/09/27 08:49:08;;;;;;;15.13;5.88;;;;;;;;;;5060300;28;20028;-96
2023/09/27 08:51:36;;;;;;;10.05;4.32;;;;;;;;;;5068661;28;20371;-96
2023/09/27 08:54:02;;;;;;;9.52;5.18;;;;;;;;;;5069271;28;20068;-96
2023/09/27 08:56:28;;;;;;;10.40;5.10;;;;;;;;;;5072650;28;20024;-95
2023/09/27 08:58:54;;;;;;;9.55;5.40;;;;;;;;;;5058433;28;20037;-96
2023/09/27 09:01:19;;;;;;;9.45;5.20;;;;;;;;;;5069801;28;20023;-96
2023/09/27 09:03:46;;;;;;;13.13;5.65;;;;;;;;;;5058883;28;20021;-96
2023/09/27 09:06:12;;;;;;;10.15;5.15;;;;;;;;;;5072751;28;20120;-96
2023/09/27 09:08:44;;;;;;;12.75;5.47;;;;;;;;;;5072435;28;20123;-96
2023/09/27 09:11:10;;;;;;;13.48;5.85;;;;;;;;;;5066486;28;20103;-96
2023/09/27 09:13:53;;;;;;;10.02;5.47;;;;;;;;;;5076724;28;20153;-96
2023/09/27 09:16:23;;;;;;;11.90;4.30;;;;;;;;;;5073002;28;20032;-95
2023/09/27 09:18:51;;;;;;;10.63;4.88;;;;;;;;;;5066279;28;20016;-94
2023/09/27 09:21:24;;;;;;;8.70;4.65;;;;;;;;;;5075504;28;20029;-94
2023/09/27 09:23:50;;;;;;;7.95;3.95;;;;;;;;;;5076710;28;20035;-95
2023/09/27 09:26:26;;;;;;;9.82;4.63;;;;;;;;;;5076212;28;20467;-94
2023/09/27 09:28:59;;;;;;;10.05;4.20;;;;;;;;;;5078545;28;20024;-95
2023/09/27 09:31:33;;;;;;;8.90;4.60;;;;;;;;;;5066691;28;20399;-96
2023/09/27 09:34:05;;;;;;;8.50;4.88;;;;;;;;;;5061791;28;20033;-96
2023/09/27 09:36:31;;;;;;;10.35;4.72;;;;;;;;;;5080761;28;20017;-96
2023/09/27 09:39:06;;;;;;;8.23;4.03;;;;;;;;;;5071782;28;20418;-96
2023/09/27 09:41:52;;;;;;;8.68;5.18;;;;;;;;;;5069660;28;20021;-96
2023/09/27 09:44:19;;;;;;;10.00;4.65;;;;;;;;;;5081870;28;20025;-96
2023/09/27 09:46:45;;;;;;;8.95;3.88;;;;;;;;;;5084865;28;20034;-96
2023/09/27 09:49:21;;;;;;;6.10;4.05;;;;;;;;;;5080069;28;20025;-96
2023/09/27 09:51:48;;;;;;;8.93;4.43;;;;;;;;;;5079406;28;20101;-96
2023/09/27 09:54:47;;;;;;;10.23;3.67;;;;;;;;;;5079487;28;20032;-94
2023/09/27 09:57:13;;;;;;;8.30;3.40;;;;;;;;;;5073933;28;20039;-94
2023/09/27 10:00:11;;;;;;;8.07;3.75;;;;;;;;;;5068189;28;20032;-94
2023/09/27 10:02:41;;;;;;;8.15;3.78;;;;;;;;;;5073468;28;20035;-94
2023/09/27 10:05:07;;;;;;;9.15;3.65;;;;;;;;;;5074608;28;20031;-94
2023/09/27 10:07:33;;;;;;;5.78;3.83;;;;;;;;;;5061355;28;20019;-94
2023/09/27 10:09:59;;;;;;;9.75;3.78;;;;;;;;;;5071705;28;20029;-95
2023/09/27 10:12:26;;;;;;;9.18;3.80;;;;;;;;;;5074971;28;20021;-95
2023/09/27 10:14:55;;;;;;;7.15;3.78;;;;;;;;;;5074009;28;20052;-94
2023/09/27 10:17:21;;;;;;;13.45;3.88;;;;;;;;;;5076334;28;20060;-94
2023/09/27 10:20:05;;;;;;;8.40;3.53;;;;;;;;;;5061671;28;20036;-94
2023/09/27 10:22:30;;;;;;;7.18;3.85;;;;;;;;;;5074469;28;20029;-94
2023/09/27 10:24:56;;;;;;;10.40;3.85;;;;;;;;;;5061841;28;20055;-94
2023/09/27 10:27:22;;;;;;;7.25;4.00;;;;;;;;;;5075195;28;20416;-94
2023/09/27 10:29:54;;;;;;;14.75;3.38;;;;;;;;;;5075153;28;20606;-94
2023/09/27 10:32:19;;;;;;;7.72;3.78;;;;;;;;;;5067046;28;20043;-94
2023/09/27 10:34:47;;;;;;;6.32;3.50;;;;;;;;;;5072552;28;20020;-95
2023/09/27 10:37:13;;;;;;;5.68;3.30;;;;;;;;;;5075438;28;20111;-93
2023/09/27 10:39:39;;;;;;;4.40;3.33;;;;;;;;;;5074065;28;20024;-94
2023/09/27 10:42:04;;;;;;;5.57;2.90;;;;;;;;;;5060216;28;20017;-95
2023/09/27 10:44:30;;;;;;;5.28;2.80;;;;;;;;;;5075422;28;20017;-95
2023/09/27 10:46:57;;;;;;;8.20;3.42;;;;;;;;;;5070741;28;20020;-95
2023/09/27 10:49:27;;;;;;;7.13;2.95;;;;;;;;;;5066906;28;20025;-96
2023/09/27 10:51:53;;;;;;;8.27;3.35;;;;;;;;;;5071684;28;20020;-96
2023/09/27 10:54:22;;;;;;;5.10;2.85;;;;;;;;;;5078177;28;20160;-96
2023/09/27 10:56:52;;;;;;;7.20;3.05;;;;;;;;;;5069431;28;20012;-96
2023/09/27 10:59:36;;;;;;;6.28;3.05;;;;;;;;;;5079039;28;20013;-96
2023/09/27 11:02:06;;;;;;;5.20;2.60;;;;;;;;;;5081825;28;20016;-96
2023/09/27 11:04:33;;;;;;;5.38;2.40;;;;;;;;;;5081882;28;20078;-96
2023/09/27 11:07:02;;;;;;;4.32;2.63;;;;;;;;;;5079554;28;20031;-96
2023/09/27 11:09:28;;;;;;;6.65;2.90;;;;;;;;;;5061198;28;20365;-96
2023/09/27 11:11:54;;;;;;;5.53;2.97;;;;;;;;;;5072337;28;20103;-96
2023/09/27 11:14:32;;;;;;;7.75;3.30;;;;;;;;;;5074536;28;20067;-96
2023/09/27 11:17:16;;;;;;;7.95;2.33;;;;;;;;;;5075147;28;20017;-96
2023/09/27 11:19:42;;;;;;;8.70;2.38;;;;;;;;;;5074968;28;20459;-96
2023/09/27 11:22:10;;;;;;;4.35;2.15;;;;;;;;;;5066086;28;20036;-96
2023/09/27 11:24:37;;;;;;;3.78;2.35;;;;;;;;;;5071459;28;20597;-96
2023/09/27 11:27:06;;;;;;;8.43;2.55;;;;;;;;;;5074839;28;20058;-96
2023/09/27 11:29:31;;;;;;;5.82;2.47;;;;;;;;;;5061575;28;20045;-96
2023/09/27 11:31:57;;;;;;;6.82;3.15;;;;;;;;;;5054875;28;20072;-96
2023/09/27 11:34:22;;;;;;;4.93;2.92;;;;;;;;;;5057741;28;20025;-96
2023/09/27 11:36:47;;;;;;;4.53;2.75;;;;;;;;;;5053882;28;20024;-96
2023/09/27 11:39:13;;;;;;;4.72;2.22;;;;;;;;;;5063486;28;20027;-96
2023/09/27 11:41:39;;;;;;;5.43;2.40;;;;;;;;;;5059643;28;20013;-96
2023/09/27 11:44:23;;;;;;;6.32;2.45;;;;;;;;;;5072739;28;20337;-96
2023/09/27 11:46:49;;;;;;;4.32;2.50;;;;;;;;;;5073791;28;20024;-96
2023/09/27 11:49:16;;;;;;;4.45;2.40;;;;;;;;;;5073822;28;20020;-96
2023/09/27 11:51:41;;;;;;;4.60;2.53;;;;;;;;;;5060172;28;20324;-96
2023/09/27 11:54:07;;;;;;;11.60;3.10;;;;;;;;;;5071793;28;20032;-96
2023/09/27 11:56:33;;;;;;;6.72;2.70;;;;;;;;;;5060165;28;20028;-96
2023/09/27 11:58:59;;;;;;;4.00;2.38;;;;;;;;;;5067577;28;20021;-96
2023/09/27 12:01:24;;;;;;;7.35;3.05;;;;;;;;;;5053480;28;20025;-96
2023/09/27 12:03:50;;;;;;;9.88;2.42;;;;;;;;;;5057616;28;20070;-96
2023/09/27 12:06:16;;;;;;;10.85;2.53;;;;;;;;;;5063873;28;20099;-96
2023/09/27 12:08:45;;;;;;;7.68;2.72;;;;;;;;;;5075179;28;20150;-96
2023/09/27 12:11:11;;;;;;;6.00;3.10;;;;;;;;;;5074565;28;20020;-96
2023/09/27 12:13:36;;;;;;;6.95;2.83;;;;;;;;;;5074184;28;20021;-96
2023/09/27 12:16:02;;;;;;;6.00;2.97;;;;;;;;;;5062551;28;20025;-96
2023/09/27 12:18:28;;;;;;;9.13;3.35;;;;;;;;;;5075089;28;20017;-96
2023/09/27 12:20:53;;;;;;;7.40;2.45;;;;;;;;;;5073167;28;20417;-96
2023/09/27 12:23:18;;;;;;;7.78;2.80;;;;;;;;;;5071886;28;20024;-96
2023/09/27 12:25:44;;;;;;;6.95;2.97;;;;;;;;;;5072621;28;20033;-96
2023/09/27 12:28:11;;;;;;;7.72;3.28;;;;;;;;;;5072842;28;20024;-96
2023/09/27 12:30:37;;;;;;;6.20;2.67;;;;;;;;;;5072890;28;20107;-95
2023/09/27 12:33:02;;;;;;;9.48;3.20;;;;;;;;;;5072308;28;20048;-96
2023/09/27 12:35:27;;;;;;;10.02;2.53;;;;;;;;;;5071557;28;20027;-96
2023/09/27 12:37:53;;;;;;;5.95;2.20;;;;;;;;;;5073117;28;20071;-95
2023/09/27 12:40:18;;;;;;;4.43;2.17;;;;;;;;;;5072643;28;20126;-96
2023/09/27 12:42:44;;;;;;;4.55;2.63;;;;;;;;;;5062430;28;20029;-94
2023/09/27 12:45:11;;;;;;;6.00;2.50;;;;;;;;;;5068430;28;20085;-95
2023/09/27 12:47:37;;;;;;;4.40;2.63;;;;;;;;;;5064060;28;20025;-94
2023/09/27 12:50:03;;;;;;;6.63;2.40;;;;;;;;;;5067060;28;20543;-94
2023/09/27 12:52:29;;;;;;;8.25;2.33;;;;;;;;;;5072360;28;20040;-94
2023/09/27 12:54:54;;;;;;;4.10;2.40;;;;;;;;;;5072115;28;20170;-95
2023/09/27 12:57:20;;;;;;;4.80;2.55;;;;;;;;;;5072264;28;20486;-95
2023/09/27 12:59:45;;;;;;;5.43;2.50;;;;;;;;;;5072267;28;20353;-95
2023/09/27 13:02:11;;;;;;;7.25;2.30;;;;;;;;;;5072246;28;20048;-95
2023/09/27 13:04:36;;;;;;;7.47;2.88;;;;;;;;;;5072046;28;20028;-95
2023/09/27 13:07:01;;;;;;;6.93;2.60;;;;;;;;;;5058690;28;20025;-95
2023/09/27 13:09:27;;;;;;;8.18;2.70;;;;;;;;;;5072614;28;20020;-96
2023/09/27 13:11:52;;;;;;;4.57;2.40;;;;;;;;;;5068527;28;20107;-95
2023/09/27 13:14:17;;;;;;;9.30;2.13;;;;;;;;;;5064447;28;20029;-95
2023/09/27 13:16:43;;;;;;;13.43;2.20;;;;;;;;;;5072346;28;20031;-95
2023/09/27 13:19:09;;;;;;;4.35;1.80;;;;;;;;;;5073556;28;20017;-95
2023/09/27 13:21:35;;;;;;;6.72;3.22;;;;;;;;;;5068935;28;20025;-95
2023/09/27 13:24:03;;;;;;;4.85;2.05;;;;;;;;;;5057704;28;20149;-95
2023/09/27 13:26:28;;;;;;;4.18;2.25;;;;;;;;;;5055948;28;20079;-95
2023/09/27 13:28:54;;;;;;;4.00;2.10;;;;;;;;;;5072525;28;20410;-95
2023/09/27 13:31:20;;;;;;;6.07;2.28;;;;;;;;;;5072850;28;20027;-96
2023/09/27 13:33:46;;;;;;;6.32;2.40;;;;;;;;;;5068883;28;20107;-96
2023/09/27 13:36:11;;;;;;;5.75;2.25;;;;;;;;;;5072209;28;20012;-96
2023/09/27 13:38:37;;;;;;;3.97;2.22;;;;;;;;;;5058408;28;20095;-95
2023/09/27 13:41:02;;;;;;;11.75;2.60;;;;;;;;;;5061466;28;20017;-95
2023/09/27 13:43:32;;;;;;;5.70;2.35;;;;;;;;;;5068460;28;20074;-96
2023/09/27 13:45:57;;;;;;;5.93;2.20;;;;;;;;;;5063245;28;20048;-95
2023/09/27 13:48:23;;;;;;;3.78;2.05;;;;;;;;;;5072286;28;20494;-96
2023/09/27 13:50:48;;;;;;;6.32;2.03;;;;;;;;;;5065313;28;20017;-96
2023/09/27 13:53:13;;;;;;;6.78;2.30;;;;;;;;;;5065227;28;20052;-95
2023/09/27 13:55:39;;;;;;;4.35;2.40;;;;;;;;;;5063172;28;20035;-95
2023/09/27 13:58:08;;;;;;;11.38;2.08;;;;;;;;;;5054503;28;20363;-96
2023/09/27 14:00:36;;;;;;;7.18;2.63;;;;;;;;;;5059296;28;20020;-96
2023/09/27 14:03:01;;;;;;;6.38;2.20;;;;;;;;;;5075620;28;20019;-95
2023/09/27 14:05:27;;;;;;;6.95;2.80;;;;;;;;;;5071676;28;20024;-96
2023/09/27 14:07:52;;;;;;;5.13;2.47;;;;;;;;;;5075602;28;20099;-96
2023/09/27 14:10:19;;;;;;;7.50;2.40;;;;;;;;;;5075883;28;20036;-96
2023/09/27 14:12:44;;;;;;;6.72;1.98;;;;;;;;;;5071657;28;20024;-96
2023/09/27 14:15:12;;;;;;;3.30;2.17;;;;;;;;;;5075357;28;20024;-96
2023/09/27 14:17:38;;;;;;;5.50;2.40;;;;;;;;;;5070870;28;20052;-96
2023/09/27 14:20:05;;;;;;;5.65;2.17;;;;;;;;;;5075470;28;20027;-95
2023/09/27 14:22:31;;;;;;;3.55;1.65;;;;;;;;;;5075528;28;20025;-95
2023/09/27 14:24:56;;;;;;;7.15;2.05;;;;;;;;;;5075995;28;20063;-96
2023/09/27 14:27:24;;;;;;;5.05;2.20;;;;;;;;;;5075766;28;20025;-95
2023/09/27 14:29:49;;;;;;;7.25;2.38;;;;;;;;;;5075308;28;20032;-95
2023/09/27 14:32:14;;;;;;;6.75;2.50;;;;;;;;;;5076650;28;20025;-96
2023/09/27 14:34:40;;;;;;;6.65;2.58;;;;;;;;;;5076376;28;20096;-96
2023/09/27 14:37:06;;;;;;;5.03;2.28;;;;;;;;;;5073090;28;20016;-95
2023/09/27 14:39:31;;;;;;;4.20;2.55;;;;;;;;;;5078966;28;20088;-90
2023/09/27 14:41:58;;;;;;;4.95;2.38;;;;;;;;;;5078434;28;20093;-90